Altisurface de La Taillade

FR-0290 · Auvergne-Rhône-Alpes, 法国

2022年10月7日

时间 代码 天气 温度 能见度 天花板 METAR/SPECI
13:00
V
21 °C 10 km+ - 150° 150° 7 kt METAR LFSL 071100Z AUTO 15007KT 120V180 CAVOK 21/14 Q1024 NOSIG
12:30
V
20 °C 10 km+ - 150° 150° 7 kt METAR LFSL 071030Z AUTO 15007KT 110V200 CAVOK 20/14 Q1024 NOSIG
12:00
V
20 °C 10 km+ - 150° 150° 8 kt METAR LFSL 071000Z AUTO 15008KT 110V200 CAVOK 20/14 Q1024 NOSIG
11:30
V
19 °C 10 km+ - 150° 150° 7 kt METAR LFSL 070930Z AUTO 15007KT 110V180 CAVOK 19/14 Q1024 NOSIG
11:00
V
18 °C 10 km+ - 140° 140° 6 kt METAR LFSL 070900Z AUTO 14006KT 120V180 CAVOK 18/14 Q1024 NOSIG
10:30
V
17 °C 10 km+ - 150° 150° 5 kt METAR LFSL 070830Z AUTO 15005KT 120V180 CAVOK 17/14 Q1024 NOSIG
10:00
V
16 °C 10 km+ - 120° 120° 5 kt METAR LFSL 070800Z AUTO 12005KT CAVOK 16/14 Q1024 NOSIG
09:30
V
14 °C 10 km+ - 120° 120° 3 kt METAR LFSL 070730Z AUTO 12003KT CAVOK 14/13 Q1024 NOSIG
09:00
V
11 °C 10 km+ - Var Var 2 kt METAR LFSL 070700Z AUTO VRB02KT CAVOK 11/11 Q1024 TEMPO 0800 FG VV///
08:30
V
10 °C 10 km+ - Var 000° 0 kt METAR LFSL 070630Z AUTO 00000KT 9999 FEW001 10/10 Q1024 TEMPO 0800 FG VV///
08:00
L
10 °C 10 km+ - Var 000° 0 kt METAR LFSL 070600Z AUTO 00000KT 9999 VV/// 10/10 Q1024 TEMPO 3000 BR NSC
07:30
V
10 °C 10 km+ - Var Var 2 kt METAR LFSL 070530Z AUTO VRB02KT CAVOK 10/10 Q1024 TEMPO 3000 BR
07:00
V
11 °C 10 km+ - Var 000° 0 kt METAR LFSL 070500Z AUTO 00000KT CAVOK 11/10 Q1024 TEMPO 0500 FG VV///
06:30
V
11 °C 10 km+ - 120° 120° 2 kt METAR LFSL 070430Z AUTO 12002KT CAVOK 11/10 Q1024 TEMPO 0500 FG VV///
06:00
V
11 °C 8 km - Var Var 1 kt METAR LFSL 070400Z AUTO VRB01KT 8000 NSC 11/10 Q1025 TEMPO 0500 FG VV///
05:30
L
10 °C 9 km - 130° 130° 3 kt METAR LFSL 070330Z AUTO 13003KT 9000 VV/// 10/10 Q1025 TEMPO 0500 FG
05:00
L
11 °C 3,4 km - 110° 110° 1 kt METAR LFSL 070300Z AUTO 11001KT 3400 BR VV/// 11/10 Q1025 TEMPO 0500 FG
04:30
L
11 °C 7 km - Var 000° 0 kt METAR LFSL 070230Z AUTO 00000KT 7000 VV/// 11/10 Q1025 TEMPO 0500 FG
04:00
L
11 °C 8 km - Var 000° 0 kt METAR LFSL 070200Z AUTO 00000KT 8000 VV/// 11/11 Q1025
03:30
V
11 °C 10 km+ - Var 000° 0 kt METAR LFSL 070130Z AUTO 00000KT 9999 ////// 11/11 Q1026
03:00
V
11 °C 10 km+ 21.000 ft Var 000° 0 kt METAR LFSL 070100Z AUTO 00000KT 9999 FEW001 BKN210 11/10 Q1026
02:30
V
11 °C 10 km+ 21.000 ft Var 000° 0 kt METAR LFSL 070030Z AUTO 00000KT 9999 SCT033 BKN210 11/11 Q1026
02:00
V
11 °C 10 km+ - Var 000° 0 kt METAR LFSL 070000Z AUTO 00000KT CAVOK 11/10 Q1026
01:30
V
12 °C 10 km+ - Var 000° 0 kt METAR LFSL 062330Z AUTO 00000KT CAVOK 12/11 Q1027
01:00
V
12 °C 10 km+ - Var 000° 0 kt METAR LFSL 062300Z AUTO 00000KT CAVOK 12/11 Q1027
00:30
V
12 °C 10 km+ - Var 000° 0 kt METAR LFSL 062230Z AUTO 00000KT CAVOK 12/11 Q1027
00:00
V
12 °C 10 km+ - Var 000° 0 kt METAR LFSL 062200Z AUTO 00000KT CAVOK 12/11 Q1027

2022年10月6日

时间 代码 天气 温度 能见度 天花板 METAR/SPECI
23:30
V
12 °C 10 km+ - Var 000° 0 kt METAR LFSL 062130Z AUTO 00000KT CAVOK 12/12 Q1027
23:00
V
13 °C 10 km+ - Var 000° 0 kt METAR LFSL 062100Z AUTO 00000KT CAVOK 13/12 Q1027
22:30
V
13 °C 10 km+ - Var 000° 0 kt METAR LFSL 062030Z AUTO 00000KT CAVOK 13/12 Q1027
22:00
V
13 °C 10 km+ - Var 000° 0 kt METAR LFSL 062000Z AUTO 00000KT CAVOK 13/13 Q1028 NOSIG
21:30
V
14 °C 10 km+ - Var 000° 0 kt METAR LFSL 061930Z AUTO 00000KT CAVOK 14/13 Q1028 NOSIG
21:00
V
14 °C 10 km+ - Var 000° 0 kt METAR LFSL 061900Z AUTO 00000KT CAVOK 14/13 Q1028 NOSIG
20:30
V
15 °C 10 km+ - Var 000° 0 kt METAR LFSL 061830Z AUTO 00000KT CAVOK 15/13 Q1028 NOSIG
20:00
V
16 °C 10 km+ - Var 000° 0 kt METAR LFSL 061800Z AUTO 00000KT CAVOK 16/14 Q1028 NOSIG
19:30
V
18 °C 10 km+ - 280° 280° 3 kt METAR LFSL 061730Z AUTO 28003KT CAVOK 18/15 Q1028 NOSIG
19:00
V
19 °C 10 km+ - 320° 320° 3 kt METAR LFSL 061700Z AUTO 32003KT CAVOK 19/15 Q1027 NOSIG
18:30
V
20 °C 10 km+ - 320° 320° 4 kt METAR LFSL 061630Z AUTO 32004KT CAVOK 20/15 Q1027 NOSIG
18:00
V
20 °C 10 km+ - 320° 320° 6 kt METAR LFSL 061600Z AUTO 32006KT CAVOK 20/15 Q1028 NOSIG
17:30
V
20 °C 10 km+ - 300° 300° 5 kt METAR LFSL 061530Z AUTO 30005KT 250V330 9999 FEW030 20/15 Q1028 NOSIG
17:00
V
21 °C 10 km+ - 280° 280° 4 kt METAR LFSL 061500Z AUTO 28004KT 190V320 9999 FEW028 21/15 Q1028 NOSIG
16:30
V
21 °C 10 km+ - 290° 290° 3 kt METAR LFSL 061430Z AUTO 29003KT 220V010 9999 FEW021 21/15 Q1028 NOSIG
16:00
V
21 °C 10 km+ - Var Var 3 kt METAR LFSL 061400Z AUTO VRB03KT 9999 FEW022 21/15 Q1028 NOSIG
15:30
V
20 °C 10 km+ 3.400 ft Var Var 2 kt METAR LFSL 061330Z AUTO VRB02KT 9999 SCT019 OVC034 20/15 Q1029 NOSIG
15:00
M
19 °C 10 km+ 1.600 ft Var Var 3 kt METAR LFSL 061300Z AUTO VRB03KT 9999 OVC016 19/15 Q1029 TEMPO BKN010
14:30
M
19 °C 10 km+ 1.400 ft Var Var 3 kt METAR LFSL 061230Z AUTO VRB03KT 9999 OVC014 19/15 Q1029 BECMG NSC
14:00
M
18 °C 10 km+ 1.200 ft Var Var 2 kt METAR LFSL 061200Z AUTO VRB02KT 9999 OVC012 18/15 Q1030 NOSIG
13:30
M
18 °C 10 km+ 1.100 ft Var Var 3 kt METAR LFSL 061130Z AUTO VRB03KT 9999 OVC011 18/15 Q1030 NOSIG
13:00
I
17 °C 10 km+ 800 ft Var Var 2 kt METAR LFSL 061100Z AUTO VRB02KT 9999 BKN008 OVC013 17/15 Q1030 BECMG BKN010
12:30
I
17 °C 10 km+ 500 ft Var Var 2 kt METAR LFSL 061030Z AUTO VRB02KT 9999 OVC005 17/15 Q1030 BECMG BKN010
12:00
L
16 °C 10 km+ 400 ft Var Var 2 kt METAR LFSL 061000Z AUTO VRB02KT 9999 OVC004 16/15 Q1030 BECMG OVC030
11:30
L
16 °C 10 km+ 400 ft Var Var 2 kt METAR LFSL 060930Z AUTO VRB02KT 9999 BKN004 OVC027 16/15 Q1030 BECMG OVC030
11:00
L
16 °C 4,2 km 300 ft 170° 170° 2 kt METAR LFSL 060900Z AUTO 17002KT 4200 BR OVC003 16/15 Q1030 BECMG 9999 NSW OVC030
10:30
I
16 °C 4,3 km 2.100 ft Var Var 1 kt METAR LFSL 060830Z AUTO VRB01KT 4300 -DZ BR SCT004 BKN021 OVC028 16/14 Q1030 TEMPO OVC009 BECMG 9999 NSW
10:00
M
16 °C 10 km+ 2.900 ft 140° 140° 3 kt METAR LFSL 060800Z AUTO 14003KT 110V190 9999 FEW013 OVC029 16/14 Q1030 BECMG OVC009
09:30
M
15 °C 10 km+ 1.600 ft Var Var 1 kt METAR LFSL 060730Z AUTO VRB01KT 9999 FEW010 BKN016 BKN021 15/14 Q1030 BECMG OVC009
09:00
M
15 °C 10 km+ 2.700 ft Var Var 1 kt METAR LFSL 060700Z AUTO VRB01KT 9999 OVC027 15/14 Q1029 TEMPO OVC004
08:30
M
15 °C 10 km+ 2.600 ft Var Var 2 kt METAR LFSL 060630Z AUTO VRB02KT 9999 FEW007 SCT018 OVC026 15/14 Q1029 TEMPO OVC004
08:00
I
15 °C 10 km+ 700 ft 330° 330° 2 kt METAR LFSL 060600Z AUTO 33002KT 9999 OVC007 15/14 Q1029 TEMPO OVC004
07:30
I
15 °C 10 km+ 700 ft Var 000° 0 kt METAR LFSL 060530Z AUTO 00000KT 9999 OVC007 15/13 Q1029 TEMPO 3000 -RADZ
07:00
I
15 °C 10 km+ 900 ft Var Var 1 kt METAR LFSL 060500Z AUTO VRB01KT 9999 OVC009 15/13 Q1029 TEMPO 3000 -RADZ
06:30
M
15 °C 10 km+ 1.100 ft Var 000° 0 kt METAR LFSL 060430Z AUTO 00000KT 9999 OVC011 15/13 Q1028 TEMPO 3000 -RADZ BKN007
06:00
M
15 °C 10 km+ 1.100 ft 130° 130° 1 kt METAR LFSL 060400Z AUTO 13001KT 9999 OVC011 15/13 Q1028 TEMPO 3000 -RADZ BKN007
05:30
M
14 °C 10 km+ 1.900 ft 290° 290° 3 kt METAR LFSL 060330Z AUTO 29003KT 9999 SCT013 BKN019 14/13 Q1028 TEMPO 3000 -RADZ BKN007
05:00
M
14 °C 10 km+ 2.600 ft 110° 110° 2 kt METAR LFSL 060300Z AUTO 11002KT 9999 FEW020 BKN026 BKN031 14/13 Q1028
04:30
V
14 °C 10 km+ - Var 000° 0 kt METAR LFSL 060230Z AUTO 00000KT CAVOK 14/13 Q1028
04:00
M
15 °C 10 km+ 2.300 ft 130° 130° 3 kt METAR LFSL 060200Z AUTO 13003KT 9999 BKN023 BKN064 15/13 Q1028
03:30
M
16 °C 10 km+ 2.300 ft 140° 140° 3 kt METAR LFSL 060130Z AUTO 14003KT 9999 OVC023 16/13 Q1028
03:00
M
15 °C 10 km+ 2.400 ft Var Var 3 kt METAR LFSL 060100Z AUTO VRB03KT 9999 OVC024 15/13 Q1028
02:30
M
14 °C 10 km+ 2.700 ft 110° 110° 1 kt METAR LFSL 060030Z AUTO 11001KT 9999 OVC027 14/13 Q1028
02:00
M
14 °C 10 km+ 2.900 ft 130° 130° 2 kt METAR LFSL 060000Z AUTO 13002KT 9999 OVC029 14/12 Q1028
01:30
V
15 °C 10 km+ - 130° 130° 1 kt METAR LFSL 052330Z AUTO 13001KT 9999 SCT029 15/13 Q1028
01:00
V
16 °C 10 km+ - 140° 140° 4 kt METAR LFSL 052300Z AUTO 14004KT CAVOK 16/13 Q1028
00:30
V
16 °C 10 km+ - 140° 140° 5 kt METAR LFSL 052230Z AUTO 14005KT CAVOK 16/13 Q1027
00:00
V
16 °C 10 km+ - 150° 150° 3 kt METAR LFSL 052200Z AUTO 15003KT 9999 FEW041 16/13 Q1028

2022年10月5日

时间 代码 天气 温度 能见度 天花板 METAR/SPECI
23:30
V
18 °C 10 km+ - Var Var 2 kt METAR LFSL 052130Z AUTO VRB02KT CAVOK 18/13 Q1027
23:00
V
18 °C 10 km+ - 150° 150° 5 kt METAR LFSL 052100Z AUTO 15005KT CAVOK 18/14 Q1027
22:30
V
18 °C 10 km+ - 140° 140° 5 kt METAR LFSL 052030Z AUTO 14005KT 110V170 CAVOK 18/14 Q1026
22:00
V
16 °C 10 km+ - 140° 140° 2 kt METAR LFSL 052000Z AUTO 14002KT CAVOK 16/13 Q1026 TEMPO BKN010
21:30
V
16 °C 10 km+ - Var Var 3 kt METAR LFSL 051930Z AUTO VRB03KT CAVOK 16/13 Q1025 TEMPO BKN010
21:00
V
16 °C 10 km+ - Var Var 3 kt METAR LFSL 051900Z AUTO VRB03KT CAVOK 16/13 Q1025 NOSIG
20:30
V
16 °C 10 km+ - Var 000° 0 kt METAR LFSL 051830Z AUTO 00000KT CAVOK 16/12 Q1024 NOSIG
20:00
V
18 °C 10 km+ - Var 000° 0 kt METAR LFSL 051800Z AUTO 00000KT CAVOK 18/13 Q1024 NOSIG
19:30
V
20 °C 10 km+ - Var 000° 0 kt METAR LFSL 051730Z AUTO 00000KT CAVOK 20/13 Q1023 NOSIG
19:00
V
23 °C 10 km+ - 200° 200° 1 kt METAR LFSL 051700Z AUTO 20001KT CAVOK 23/13 Q1023 NOSIG
18:30
V
24 °C 10 km+ - 200° 200° 3 kt METAR LFSL 051630Z AUTO 20003KT 170V240 CAVOK 24/12 Q1023 NOSIG
18:00
V
26 °C 10 km+ - 190° 190° 5 kt METAR LFSL 051600Z AUTO 19005KT 140V260 CAVOK 26/12 Q1022 NOSIG
17:30
V
26 °C 10 km+ - 180° 180° 7 kt METAR LFSL 051530Z AUTO 18007KT CAVOK 26/11 Q1022 NOSIG
17:00
V
26 °C 10 km+ - 210° 210° 6 kt METAR LFSL 051500Z AUTO 21006KT 150V250 CAVOK 26/10 Q1022 NOSIG
16:30
V
26 °C 10 km+ - 160° 160° 7 kt METAR LFSL 051430Z AUTO 16007KT 110V200 CAVOK 26/10 Q1022 NOSIG
16:00
V
26 °C 10 km+ - 170° 170° 7 kt METAR LFSL 051400Z AUTO 17007KT 110V210 CAVOK 26/10 Q1022 NOSIG
15:30
V
25 °C 10 km+ - 150° 150° 7 kt METAR LFSL 051330Z AUTO 15007KT 110V210 CAVOK 25/11 Q1022 NOSIG
15:00
V
25 °C 10 km+ - 160° 160° 9 kt METAR LFSL 051300Z AUTO 16009KT 110V210 CAVOK 25/11 Q1022 NOSIG
14:30
V
25 °C 10 km+ - 170° 170° 8 kt METAR LFSL 051230Z AUTO 17008KT 120V200 CAVOK 25/12 Q1022 NOSIG
14:00
V
24 °C 10 km+ - 160° 160° 8 kt METAR LFSL 051200Z AUTO 16008KT 110V210 CAVOK 24/12 Q1023 NOSIG
13:30
V
23 °C 10 km+ - 160° 160° 9 kt METAR LFSL 051130Z AUTO 16009KT 100V210 CAVOK 23/12 Q1023 NOSIG
13:00
V
23 °C 10 km+ - 160° 160° 9 kt METAR LFSL 051100Z AUTO 16009KT CAVOK 23/12 Q1023 NOSIG
较旧的数据

我们和第三方通过cookies跟踪您在我们网站上的上网行为。如果您继续,我们认为您同意我们的cookie政策。 了解更多